Latest Coastal Weather Observations for Hopetoun North

IDW60701

Issued at 8:25 pm WST Thursday 30 October 2014 (issued every 10 minutes, with the page automatically refreshed every 10 minutes)

About coastal observations | Map of coastal stations | Coastal observations for WA | Marine services | Other Formats
Station Details ID: 009961 Name: HOPETOUN NORTH Lat: -33.93 Lon: 120.13 Height: 26.0 m
Data from the previous 72 hours. | See also: Recent months at Hopetoun North
Date/Time
WST
Temp

°C
Wind Pressure Rain
since 9am
mm
Weather Cloud Vis
km
Sea
Height
m
Swell
Dir
 
Speed
knots
Gust
knots
hPa Trend Height
m
Period
s
Dir
30/08:00pm 17.4 S 9 14 1010.3 - 0.0 - - - - - - -
30/07:30pm 17.6 S 9 15 1010.0 - 0.0 - - - - - - -
30/07:00pm 17.5 S 8 12 1009.8 - 0.0 - - - - - - -
30/06:30pm 17.4 S 10 13 1009.7 - 0.0 - - - - - - -
30/06:00pm 17.4 S 6 9 1009.4 - 0.0 - - - - - - -
30/05:30pm 17.3 SSE 5 8 1009.0 - 0.0 - - - - - - -
30/05:00pm 18.2 SSE 6 10 1008.8 - 0.0 - - - - - - -
30/04:30pm 18.9 SSE 9 12 1008.5 - 0.0 - - - - - - -
30/04:00pm 18.8 SSE 9 12 1008.3 - 0.0 - - - - - - -
30/03:30pm 19.0 SE 10 13 1008.2 - 0.0 - - - - - - -
30/03:00pm 19.9 SE 9 14 1008.3 - 0.0 - - - - - - -
30/02:30pm 19.6 SSE 10 14 1008.7 - 0.0 - - - - - - -
30/02:00pm 19.9 SSE 8 12 1009.1 - 0.0 - - - - - - -
30/01:30pm 20.4 SSE 10 12 1009.5 - 0.0 - - - - - - -
30/01:00pm 19.4 S 9 13 1009.8 - 0.0 - - - - - - -
30/12:30pm 19.9 S 10 14 1010.3 - 0.0 - - - - - - -
30/12:00pm 19.5 SSE 8 12 1010.5 - 0.0 - - - - - - -
30/11:30am 19.3 S 8 11 1010.7 - 0.0 - - - - - - -
30/11:00am 19.2 S 8 13 1011.1 - 0.0 - - - - - - -
30/10:30am 19.9 S 8 11 1011.6 - 0.0 - - - - - - -
30/10:00am 19.3 S 9 11 1012.0 - 0.0 - - - - - - -
30/09:30am 18.8 S 4 6 1012.4 - 0.0 - - - - - - -
30/09:00am 18.9 S 5 9 1012.5 - 0.0 - - - - - - -
30/08:30am 17.9 SSW 5 7 1012.9 - 0.0 - - - - - - -
30/08:00am 17.6 W 2 3 1013.5 - 0.0 - - - - - - -
30/07:30am 17.2 CALM 0 2 1013.4 - 0.0 - - - - - - -
30/07:00am 16.9 N 1 2 1013.1 - 0.0 - - - - - - -
30/06:30am 16.5 N 1 4 1013.1 - 0.0 - - - - - - -
30/06:00am 16.1 N 1 2 1012.9 - 0.0 - - - - - - -
30/05:30am 15.9 SSW 1 3 1012.7 - 0.0 - - - - - - -
30/05:00am 15.9 S 2 3 1012.8 - 0.0 - - - - - - -
30/04:30am 15.8 S 2 4 1012.7 - 0.0 - - - - - - -
30/04:00am 15.8 SSW 2 3 1012.7 - 0.0 - - - - - - -
30/03:30am 15.9 SSW 4 5 1012.9 - 0.0 - - - - - - -
30/03:00am 16.0 S 5 7 1012.7 - 0.0 - - - - - - -
30/02:30am 15.9 S 1 2 1013.1 - 0.0 - - - - - - -
30/02:00am 16.1 SW 2 3 1013.7 - 0.0 - - - - - - -
30/01:30am 16.1 SSE 5 8 1013.0 - 0.0 - - - - - - -
30/01:00am 16.3 SE 5 7 1013.3 - 0.0 - - - - - - -
30/12:30am 16.2 SSE 4 7 1013.4 - 0.0 - - - - - - -
30/12:00am 16.3 SSE 5 7 1013.9 - 0.0 - - - - - - -
 
Date/Time
WST
Temp

°C
Wind Pressure Rain
since 9am
mm
Weather Cloud Vis
km
Sea
Height
m
Swell
Dir
 
Speed
knots
Gust
knots
hPa Trend Height
m
Period
s
Dir
29/11:30pm 16.4 S 6 8 1014.3 - 0.0 - - - - - - -
29/11:00pm 16.5 S 6 8 1014.2 - 0.0 - - - - - - -
29/10:30pm 16.4 SSE 6 9 1014.1 - 0.0 - - - - - - -
29/10:00pm 16.6 SSE 6 10 1014.5 - 0.0 - - - - - - -
29/09:30pm 16.6 SSE 6 9 1014.6 - 0.0 - - - - - - -
29/09:00pm 16.6 SSE 6 10 1014.4 - 0.0 - - - - - - -
29/08:30pm 16.7 SE 5 8 1014.6 - 0.0 - - - - - - -
29/08:00pm 16.7 SSE 7 11 1014.3 - 0.0 - - - - - - -
29/07:30pm 16.7 SSE 7 11 1014.2 - 0.0 - - - - - - -
29/07:00pm 16.6 SE 8 11 1014.1 - 0.0 - - - - - - -
29/06:30pm 16.6 SSE 9 12 1014.4 - 0.0 - - - - - - -
29/06:00pm 16.6 SSE 9 14 1014.2 - 0.0 - - - - - - -
29/05:30pm 16.9 S 10 14 1014.4 - 0.0 - - - - - - -
29/05:00pm 17.0 SSE 10 15 1014.1 - 0.0 - - - - - - -
29/04:30pm 17.1 SSE 9 13 1014.1 - 0.0 - - - - - - -
29/04:00pm 17.8 SSE 10 15 1013.9 - 0.0 - - - - - - -
29/03:30pm 17.6 SSE 11 16 1013.6 - 0.0 - - - - - - -
29/03:00pm 17.6 SSE 11 15 1013.8 - 0.0 - - - - - - -
29/02:30pm 17.6 SSE 12 17 1013.9 - 0.0 - - - - - - -
29/02:00pm 17.4 S 12 17 1014.0 - 0.0 - - - - - - -
29/01:30pm 17.4 S 13 20 1014.7 - 0.0 - - - - - - -
29/01:00pm 17.6 S 13 18 1014.5 - 0.0 - - - - - - -
29/12:30pm 17.8 S 12 17 1014.4 - 0.0 - - - - - - -
29/12:00pm 18.1 S 12 17 1014.5 - 0.0 - - - - - - -
29/11:30am 19.1 S 11 14 1014.3 - 0.0 - - - - - - -
29/11:00am 18.3 S 10 13 1014.7 - 0.0 - - - - - - -
29/10:30am 18.7 S 8 12 1014.7 - 0.0 - - - - - - -
29/10:00am 18.7 SSE 8 10 1014.8 - 0.0 - - - - - - -
29/09:30am 18.9 S 8 10 1014.6 - 0.0 - - - - - - -
29/09:00am 18.7 S 7 11 1014.8 - 0.0 - - - - - - -
29/08:30am 18.7 SSE 8 11 1014.6 - 0.0 - - - - - - -
29/08:00am 17.9 S 6 9 1014.6 - 0.0 - - - - - - -
29/07:30am 17.9 SE 6 9 1014.9 - 0.0 - - - - - - -
29/07:00am 17.8 SSE 6 9 1014.7 - 0.0 - - - - - - -
29/06:30am 17.6 SE 6 9 1014.4 - 0.0 - - - - - - -
29/06:00am 17.5 SSE 7 10 1014.4 - 0.0 - - - - - - -
29/05:30am 17.3 SSE 7 11 1014.4 - 0.0 - - - - - - -
29/05:00am 17.3 SE 6 9 1014.5 - 0.0 - - - - - - -
29/04:30am 17.2 SSE 7 11 1014.3 - 0.0 - - - - - - -
29/04:00am 17.3 SSE 7 10 1014.5 - 0.0 - - - - - - -
29/03:30am 17.3 SSE 7 10 1014.3 - 0.0 - - - - - - -
29/03:00am 17.3 SSE 7 11 1014.3 - 0.0 - - - - - - -
29/02:30am 17.3 SSE 7 9 1014.4 - 0.0 - - - - - - -
29/02:00am 17.3 SSE 6 9 1014.6 - 0.0 - - - - - - -
29/01:30am 17.4 SE 5 7 1014.5 - 0.0 - - - - - - -
29/01:00am 17.3 SE 6 9 1014.6 - 0.0 - - - - - - -
29/12:30am 17.3 ESE 7 11 1014.4 - 0.0 - - - - - - -
29/12:00am 17.1 ESE 7 10 1014.8 - 0.0 - - - - - - -
 
Date/Time
WST
Temp

°C
Wind Pressure Rain
since 9am
mm
Weather Cloud Vis
km
Sea
Height
m
Swell
Dir
 
Speed
knots
Gust
knots
hPa Trend Height
m
Period
s
Dir
28/11:30pm 17.0 ESE 6 8 1015.2 - 0.0 - - - - - - -
28/11:00pm 16.9 ESE 7 10 1015.3 - 0.0 - - - - - - -
28/10:30pm 16.9 ESE 7 11 1015.4 - 0.0 - - - - - - -
28/10:00pm 17.1 ESE 6 11 1015.8 - 0.0 - - - - - - -
28/09:30pm 17.0 E 7 11 1015.9 - 0.0 - - - - - - -
28/09:00pm 17.3 E 7 12 1016.1 - 0.0 - - - - - - -
28/08:30pm 16.9 E 6 9 1016.2 - 0.0 - - - - - - -
28/08:00pm 16.8 E 6 9 1016.1 - 0.0 - - - - - - -
28/07:30pm 16.6 E 6 10 1016.1 - 0.0 - - - - - - -
28/07:00pm 16.7 E 6 11 1015.9 - 0.0 - - - - - - -
28/06:30pm 16.8 E 7 9 1015.9 - 0.0 - - - - - - -
28/06:00pm 17.1 E 10 14 1015.3 - 0.0 - - - - - - -
28/05:30pm 17.5 E 12 17 1015.1 - 0.0 - - - - - - -
28/05:00pm 17.9 ESE 12 17 1015.3 - 0.0 - - - - - - -
28/04:30pm 18.4 ESE 12 18 1015.3 - 0.0 - - - - - - -
28/04:00pm 18.8 ESE 13 18 1015.5 - 0.0 - - - - - - -
28/03:30pm 19.3 ESE 13 19 1015.5 - 0.0 - - - - - - -
28/03:00pm 18.9 SE 13 18 1015.8 - 0.0 - - - - - - -
28/02:30pm 19.6 ESE 13 18 1016.1 - 0.0 - - - - - - -
28/02:00pm 19.8 SE 14 19 1016.2 - 0.0 - - - - - - -
28/01:30pm 18.7 SE 14 19 1016.6 - 0.0 - - - - - - -
28/01:00pm 19.2 SE 14 20 1016.8 - 0.0 - - - - - - -
28/12:30pm 19.1 SE 13 19 1017.4 - 0.0 - - - - - - -
28/12:00pm 19.2 SE 14 18 1017.5 - 0.0 - - - - - - -
28/11:30am 19.6 SE 13 17 1017.9 - 0.0 - - - - - - -
28/11:00am 20.0 SE 11 17 1018.3 - 0.0 - - - - - - -
28/10:30am 19.9 ESE 10 14 1018.9 - 0.0 - - - - - - -
28/10:00am 20.1 ENE 5 11 1019.3 - 0.0 - - - - - - -
28/09:30am 19.7 ENE 6 11 1019.7 - 0.0 - - - - - - -
28/09:00am 18.7 ENE 8 13 1020.0 - 0.0 - - - - - - -
28/08:30am 18.4 NE 6 11 1020.1 - 0.0 - - - - - - -
28/08:00am 17.9 NE 7 12 1020.4 - 0.0 - - - - - - -
28/07:30am 17.0 NE 6 9 1020.6 - 0.0 - - - - - - -
28/07:00am 16.1 NNE 8 10 1020.8 - 0.0 - - - - - - -
28/06:30am 15.7 NNE 7 9 1020.9 - 0.0 - - - - - - -
28/06:00am 15.2 NNE 6 9 1020.8 - 0.0 - - - - - - -
28/05:30am 14.8 NNE 5 8 1020.6 - 0.0 - - - - - - -
28/05:00am 14.5 NE 3 4 1020.5 - 0.0 - - - - - - -
28/04:30am 14.4 NNE 2 3 1020.5 - 0.0 - - - - - - -
28/04:00am 14.5 NNE 3 5 1020.5 - 0.0 - - - - - - -
28/03:30am 14.6 NE 3 4 1020.6 - 0.0 - - - - - - -
28/03:00am 14.7 NE 3 4 1020.7 - 0.0 - - - - - - -
28/02:30am 14.7 NE 2 3 1020.7 - 0.0 - - - - - - -
28/02:00am 15.0 NNE 2 4 1020.8 - 0.0 - - - - - - -
28/01:30am 15.4 ESE 3 5 1020.8 - 0.0 - - - - - - -
28/01:00am 15.4 SSE 4 6 1020.9 - 0.0 - - - - - - -
28/12:30am 15.7 SE 4 5 1021.2 - 0.0 - - - - - - -
28/12:00am 15.7 SSE 4 5 1021.5 - 0.0 - - - - - - -
 
Date/Time
WST
Temp

°C
Wind Pressure Rain
since 9am
mm
Weather Cloud Vis
km
Sea
Height
m
Swell
Dir
 
Speed
knots
Gust
knots
hPa Trend Height
m
Period
s
Dir
27/11:30pm 15.7 S 4 8 1021.6 - 0.0 - - - - - - -
27/11:00pm 15.7 SSE 4 6 1021.8 - 0.0 - - - - - - -
27/10:30pm 15.6 SSE 4 6 1022.0 - 0.0 - - - - - - -
27/10:00pm 15.4 SSE 5 8 1022.1 - 0.0 - - - - - - -
27/09:30pm 15.4 SSE 6 9 1022.2 - 0.0 - - - - - - -
27/09:00pm 15.5 S 7 9 1022.4 - 0.0 - - - - - - -
27/08:30pm 15.2 S 6 8 1022.4 - 0.0 - - - - - - -

Other Formats:

Comma delimited format used in spreadsheet applications
http://www.bom.gov.au/fwo/IDW60701/IDW60701.95635.axf

JavaScript Object Notation format (JSON) in row-major order
http://www.bom.gov.au/fwo/IDW60701/IDW60701.95635.json